Time;durP1;ratioP1;P1;durP2;ratioP2;P2;SDS_P1;SDS_P2;PMS_P1;PMS_P2;Temp;Humidity;BMP_temperature;BMP_pressure;BME280_temperature;BME280_humidity;BME280_pressure;Samples;Min_cycle;Max_cycle;Signal;HPM_P1;HPM_P2
2021/06/27 00:00:00;;;;;;;5.40;3.55;;;22.70;77.00;22.30;99292.00;;;;343037;28;95701;-94
2021/06/27 00:00:29;;;;;;;4.05;3.33;;;22.70;77.10;22.40;99286.00;;;;342423;28;91130;-93
2021/06/27 00:00:43;;;;;;;4.30;3.30;;;22.70;76.80;22.40;99296.00;;;;341661;28;92731;-96
2021/06/27 00:00:55;;;;;;;3.97;3.28;;;22.80;76.80;22.40;99291.00;;;;342666;28;91106;-96
2021/06/27 00:01:07;;;;;;;4.97;3.38;;;22.70;77.10;22.30;99291.00;;;;341602;28;92630;-96
2021/06/27 00:01:22;;;;;;;5.38;3.20;;;22.70;77.00;22.20;99293.00;;;;345384;28;90463;-95
2021/06/27 00:01:34;;;;;;;5.68;2.88;;;22.70;77.00;22.20;99295.00;;;;341433;28;94335;-93
2021/06/27 00:01:46;;;;;;;5.03;2.88;;;22.70;77.00;22.30;99293.00;;;;344054;28;91111;-96
2021/06/27 00:01:58;;;;;;;4.70;3.00;;;22.70;76.80;22.30;99289.00;;;;342722;28;96453;-95
2021/06/27 00:02:10;;;;;;;3.25;2.78;;;22.70;77.00;22.30;99299.00;;;;341298;28;91032;-96
2021/06/27 00:02:22;;;;;;;3.35;2.80;;;22.70;76.70;22.30;99291.00;;;;341456;28;95599;-95
2021/06/27 00:02:34;;;;;;;3.45;3.13;;;22.70;76.70;22.20;99294.00;;;;341308;28;91117;-90
2021/06/27 00:02:45;;;;;;;4.15;3.35;;;22.70;77.00;22.10;99292.00;;;;343775;28;95341;-96
2021/06/27 00:02:57;;;;;;;4.65;3.50;;;22.70;77.20;22.10;99299.00;;;;344129;28;92156;-96
2021/06/27 00:03:10;;;;;;;4.80;3.40;;;22.70;77.30;22.20;99294.00;;;;341935;28;95470;-96
2021/06/27 00:03:22;;;;;;;4.47;3.28;;;22.70;77.50;22.30;99292.00;;;;343867;28;92181;-95
2021/06/27 00:03:35;;;;;;;5.53;3.60;;;22.60;76.90;22.30;99289.00;;;;342875;28;94651;-96
2021/06/27 00:03:47;;;;;;;5.65;3.60;;;22.60;76.70;22.30;99289.00;;;;343586;28;91412;-96
2021/06/27 00:03:59;;;;;;;5.55;3.13;;;22.70;77.00;22.20;99287.00;;;;344105;28;94227;-96
2021/06/27 00:04:14;;;;;;;5.07;2.90;;;22.60;76.80;22.30;99288.00;;;;343971;28;91127;-96
2021/06/27 00:04:25;;;;;;;5.65;3.00;;;22.60;76.90;22.20;99289.00;;;;343533;28;93021;-96
2021/06/27 00:04:37;;;;;;;5.93;3.15;;;22.60;76.80;22.20;99289.00;;;;341513;28;92131;-94
2021/06/27 00:04:49;;;;;;;5.55;2.58;;;22.60;76.90;22.30;99289.00;;;;341233;28;92719;-96
2021/06/27 00:05:01;;;;;;;4.43;2.95;;;22.60;77.50;22.40;99291.00;;;;345477;28;91085;-96
2021/06/27 00:05:16;;;;;;;4.00;3.05;;;22.60;76.70;22.30;99290.00;;;;340827;28;96029;-96
2021/06/27 00:05:29;;;;;;;5.25;3.05;;;22.60;77.30;22.30;99291.00;;;;342698;28;90360;-96
2021/06/27 00:05:41;;;;;;;6.10;3.28;;;22.60;77.50;22.30;99287.00;;;;340390;28;95556;-96
2021/06/27 00:05:53;;;;;;;6.15;3.03;;;22.60;77.60;22.30;99298.00;;;;341178;28;91257;-95
2021/06/27 00:06:05;;;;;;;5.78;2.97;;;22.60;77.40;22.30;99294.00;;;;339570;28;92315;-93
2021/06/27 00:06:18;;;;;;;5.15;2.85;;;22.60;77.40;22.30;99294.00;;;;342589;28;91304;-94
2021/06/27 00:06:30;;;;;;;4.30;3.00;;;22.60;77.10;22.20;99294.00;;;;342972;28;92687;-96
2021/06/27 00:06:42;;;;;;;4.30;3.05;;;22.60;77.60;22.30;99304.00;;;;341790;28;91077;-92
2021/06/27 00:06:54;;;;;;;4.32;3.08;;;22.50;77.60;22.30;99304.00;;;;343375;28;95743;-96
2021/06/27 00:07:05;;;;;;;4.65;3.30;;;22.50;77.50;22.20;99292.00;;;;344755;28;91071;-94
2021/06/27 00:07:17;;;;;;;4.90;3.60;;;22.50;77.20;22.10;99300.00;;;;341063;28;95885;-94
2021/06/27 00:07:29;;;;;;;3.92;3.28;;;22.50;77.80;22.20;99293.00;;;;344827;28;90483;-96
2021/06/27 00:07:41;;;;;;;4.63;3.05;;;22.50;77.20;22.30;99289.00;;;;342119;28;94553;-96
2021/06/27 00:07:54;;;;;;;4.63;2.78;;;22.50;77.00;22.40;99296.00;;;;343563;28;91496;-96
2021/06/27 00:08:07;;;;;;;4.65;2.70;;;22.50;76.70;22.50;99308.00;;;;341053;28;95529;-92
2021/06/27 00:08:18;;;;;;;3.92;2.65;;;22.50;76.70;22.50;99293.00;;;;341168;28;91243;-96
2021/06/27 00:08:30;;;;;;;3.58;2.75;;;22.60;77.00;22.40;99310.00;;;;341699;28;95817;-96
2021/06/27 00:08:42;;;;;;;2.92;2.63;;;22.60;77.10;22.30;99298.00;;;;344791;28;91104;-96
2021/06/27 00:08:54;;;;;;;3.78;2.78;;;22.60;77.10;22.30;99308.00;;;;340855;28;95407;-95
2021/06/27 00:09:06;;;;;;;4.53;2.97;;;22.60;77.40;22.40;99300.00;;;;341657;28;91173;-93
2021/06/27 00:09:18;;;;;;;6.45;2.83;;;22.60;77.20;22.50;99305.00;;;;342550;28;96155;-96
2021/06/27 00:09:30;;;;;;;5.10;2.40;;;22.60;76.90;22.60;99308.00;;;;342772;28;90559;-92
2021/06/27 00:09:42;;;;;;;5.30;2.65;;;22.60;77.40;22.60;99308.00;;;;343528;28;95438;-96
2021/06/27 00:09:53;;;;;;;3.60;2.80;;;22.60;76.70;22.50;99306.00;;;;343282;28;91181;-95
2021/06/27 00:10:10;;;;;;;5.07;3.10;;;22.60;77.00;22.60;99308.00;;;;343440;28;95327;-96
2021/06/27 00:10:32;;;;;;;5.25;3.05;;;22.60;76.70;22.50;99311.00;;;;342009;28;91188;-95
2021/06/27 00:10:45;;;;;;;4.60;3.05;;;22.70;77.40;22.70;99313.00;;;;344244;28;93510;-95
2021/06/27 00:10:58;;;;;;;4.22;2.90;;;22.70;76.80;22.70;99310.00;;;;342151;28;91186;-92
2021/06/27 00:11:10;;;;;;;3.50;2.90;;;22.70;76.70;22.70;99311.00;;;;342153;28;95447;-91
2021/06/27 00:11:24;;;;;;;3.83;2.78;;;22.70;76.90;22.70;99309.00;;;;343488;28;92265;-96
2021/06/27 00:11:36;;;;;;;5.43;2.67;;;22.70;76.70;22.80;99311.00;;;;344917;28;96129;-93
2021/06/27 00:11:48;;;;;;;5.60;2.47;;;22.70;76.60;22.70;99314.00;;;;343179;28;90448;-96
2021/06/27 00:12:01;;;;;;;5.15;2.60;;;22.70;76.70;22.60;99306.00;;;;345097;28;94917;-95
2021/06/27 00:12:13;;;;;;;4.20;2.60;;;22.70;77.00;22.50;99319.00;;;;343067;28;91148;-93
2021/06/27 00:12:24;;;;;;;3.88;2.60;;;22.70;77.00;22.60;99314.00;;;;345492;28;95858;-94
2021/06/27 00:12:41;;;;;;;4.10;2.50;;;22.70;76.70;22.70;99318.00;;;;343550;28;91178;-96
2021/06/27 00:12:53;;;;;;;4.20;2.53;;;22.70;76.70;22.60;99313.00;;;;343499;28;96075;-95
2021/06/27 00:13:05;;;;;;;3.50;2.53;;;22.70;76.80;22.60;99308.00;;;;341972;28;91131;-96
2021/06/27 00:13:17;;;;;;;3.42;2.38;;;22.70;76.50;22.80;99315.00;;;;343886;28;93367;-96
2021/06/27 00:13:29;;;;;;;4.22;2.42;;;22.70;76.20;22.70;99315.00;;;;342348;28;91028;-96
2021/06/27 00:13:43;;;;;;;5.05;2.60;;;22.70;76.40;22.90;99321.00;;;;343751;28;92993;-94
2021/06/27 00:13:55;;;;;;;5.35;2.65;;;22.80;76.40;22.90;99316.00;;;;342177;28;90269;-96
2021/06/27 00:14:07;;;;;;;3.90;2.50;;;22.80;76.20;22.90;99321.00;;;;343227;28;95449;-95
2021/06/27 00:14:18;;;;;;;4.53;2.33;;;22.80;76.00;22.90;99317.00;;;;342547;28;91195;-95
2021/06/27 00:14:30;;;;;;;4.75;2.63;;;22.80;76.00;22.90;99319.00;;;;343772;28;95415;-96
2021/06/27 00:14:42;;;;;;;4.85;2.95;;;22.80;75.90;22.90;99312.00;;;;342350;28;91484;-90
2021/06/27 00:14:54;;;;;;;3.20;2.90;;;22.90;75.80;22.80;99314.00;;;;342377;28;95651;-95
2021/06/27 00:15:13;;;;;;;3.15;2.70;;;22.90;76.10;22.80;99319.00;;;;345274;28;91073;-93
2021/06/27 00:15:40;;;;;;;3.38;2.28;;;22.90;75.90;22.70;99312.00;;;;343068;28;95055;-90
2021/06/27 00:15:52;;;;;;;3.65;2.33;;;22.90;75.90;22.60;99319.00;;;;345547;28;90982;-93
2021/06/27 00:16:04;;;;;;;3.97;2.50;;;22.90;76.20;22.50;99318.00;;;;341645;28;95799;-93
2021/06/27 00:16:17;;;;;;;3.75;2.78;;;22.90;76.20;22.40;99314.00;;;;342343;28;90405;-95
2021/06/27 00:16:31;;;;;;;3.22;2.55;;;22.80;76.20;22.50;99310.00;;;;346573;28;95034;-95
2021/06/27 00:16:42;;;;;;;5.53;2.60;;;22.80;76.20;22.40;99313.00;;;;342775;28;91258;-91
2021/06/27 00:16:55;;;;;;;6.20;2.60;;;22.80;76.30;22.40;99309.00;;;;344090;28;93311;-95
2021/06/27 00:17:07;;;;;;;5.93;2.50;;;22.80;76.50;22.40;99309.00;;;;342468;28;90997;-92
2021/06/27 00:17:19;;;;;;;3.85;2.25;;;22.80;76.50;22.60;99309.00;;;;344327;28;93379;-94
2021/06/27 00:17:30;;;;;;;4.22;2.33;;;22.80;76.30;22.70;99308.00;;;;342002;28;91221;-94
2021/06/27 00:17:42;;;;;;;5.10;2.88;;;22.80;76.20;22.60;99310.00;;;;346101;28;95486;-96
2021/06/27 00:17:55;;;;;;;5.97;3.03;;;22.80;76.50;22.70;99311.00;;;;344311;28;91213;-95
2021/06/27 00:18:08;;;;;;;4.15;2.72;;;22.80;76.20;22.70;99316.00;;;;342562;28;96888;-94
2021/06/27 00:18:22;;;;;;;4.18;2.50;;;22.80;76.40;22.50;99311.00;;;;343870;28;90459;-96
2021/06/27 00:18:34;;;;;;;3.60;2.22;;;22.80;76.40;22.50;99307.00;;;;344744;28;94920;-96
2021/06/27 00:18:46;;;;;;;3.05;2.28;;;22.80;76.50;22.40;99313.00;;;;345627;28;91205;-93
2021/06/27 00:18:59;;;;;;;3.30;2.22;;;22.80;76.50;22.40;99306.00;;;;344641;28;95470;-96
2021/06/27 00:19:10;;;;;;;3.72;2.45;;;22.80;76.50;22.40;99312.00;;;;344958;28;91121;-93
2021/06/27 00:19:22;;;;;;;3.80;2.55;;;22.80;76.60;22.50;99313.00;;;;341400;28;95718;-96
2021/06/27 00:19:34;;;;;;;3.70;2.90;;;22.80;76.40;22.60;99316.00;;;;343589;28;92261;-93
2021/06/27 00:19:46;;;;;;;3.75;2.83;;;22.80;76.20;22.60;99310.00;;;;345248;28;95606;-95
2021/06/27 00:19:58;;;;;;;4.18;2.80;;;22.80;76.20;22.50;99313.00;;;;342368;28;91163;-95
2021/06/27 00:20:13;;;;;;;4.15;2.67;;;22.80;76.60;22.50;99309.00;;;;344427;28;92933;-94
2021/06/27 00:20:27;;;;;;;3.45;2.47;;;22.80;76.80;22.60;99317.00;;;;344517;28;90403;-93
2021/06/27 00:20:42;;;;;;;3.85;2.47;;;22.70;76.20;22.60;99311.00;;;;343183;28;95070;-90
2021/06/27 00:20:57;;;;;;;5.10;2.65;;;22.80;76.10;22.60;99312.00;;;;345307;28;91158;-95
2021/06/27 00:21:11;;;;;;;5.55;2.75;;;22.80;76.30;22.70;99305.00;;;;346431;28;95632;-90
2021/06/27 00:21:23;;;;;;;4.30;2.63;;;22.80;76.10;22.70;99316.00;;;;346367;28;92193;-92
2021/06/27 00:21:36;;;;;;;3.83;2.63;;;22.80;76.00;22.60;99309.00;;;;344421;28;96090;-90
2021/06/27 00:21:49;;;;;;;3.58;2.55;;;22.80;76.50;22.50;99308.00;;;;344447;28;91175;-93
2021/06/27 00:22:01;;;;;;;3.90;2.38;;;22.80;76.30;22.50;99315.00;;;;345156;28;96305;-87
2021/06/27 00:22:12;;;;;;;3.03;2.08;;;22.80;76.50;22.60;99308.00;;;;342829;28;91012;-92
2021/06/27 00:22:24;;;;;;;4.60;2.33;;;22.80;76.30;22.60;99310.00;;;;344478;28;93383;-93
2021/06/27 00:22:36;;;;;;;4.70;2.47;;;22.80;76.30;22.60;99309.00;;;;344400;28;90408;-94
2021/06/27 00:22:48;;;;;;;5.07;2.85;;;22.80;76.10;22.60;99309.00;;;;344626;28;92285;-90
2021/06/27 00:23:00;;;;;;;5.45;3.10;;;22.80;76.30;22.60;99309.00;;;;344086;28;91138;-95
2021/06/27 00:23:14;;;;;;;5.28;3.03;;;22.70;76.30;22.40;99311.00;;;;345218;28;92978;-89
2021/06/27 00:23:29;;;;;;;4.80;3.03;;;22.80;76.40;22.30;99307.00;;;;345715;28;92861;-90
2021/06/27 00:23:46;;;;;;;4.30;2.95;;;22.70;76.30;22.30;99309.00;;;;342860;28;95585;-90
2021/06/27 00:23:58;;;;;;;4.20;2.92;;;22.80;76.50;22.50;99315.00;;;;345488;28;91071;-91
2021/06/27 00:24:10;;;;;;;5.55;3.08;;;22.70;76.20;22.60;99317.00;;;;342322;28;95379;-90
2021/06/27 00:24:21;;;;;;;5.53;3.05;;;22.70;76.10;22.60;99309.00;;;;343860;28;91215;-88
2021/06/27 00:24:33;;;;;;;5.32;3.40;;;22.70;76.20;22.60;99319.00;;;;341803;28;95672;-91
2021/06/27 00:24:45;;;;;;;5.15;3.15;;;22.70;76.70;22.60;99317.00;;;;345594;28;90472;-90
2021/06/27 00:24:57;;;;;;;6.97;3.13;;;22.70;76.10;22.50;99308.00;;;;343438;28;92304;-89
2021/06/27 00:25:10;;;;;;;6.55;2.92;;;22.70;76.70;22.50;99315.00;;;;341473;28;91141;-94
2021/06/27 00:25:27;;;;;;;5.30;2.90;;;22.70;76.50;22.50;99305.00;;;;341704;28;96054;-92
2021/06/27 00:25:39;;;;;;;5.40;3.08;;;22.70;76.30;22.50;99307.00;;;;344147;28;91137;-93
2021/06/27 00:25:53;;;;;;;4.32;2.80;;;22.70;76.40;22.40;99306.00;;;;343005;28;96267;-93
2021/06/27 00:26:07;;;;;;;3.85;2.53;;;22.70;76.60;22.50;99309.00;;;;345878;28;91170;-91
2021/06/27 00:26:22;;;;;;;6.18;2.47;;;22.70;76.60;22.50;99316.00;;;;343981;28;92985;-92
2021/06/27 00:26:34;;;;;;;6.57;2.60;;;22.70;76.40;22.60;99310.00;;;;343512;28;91060;-91
2021/06/27 00:26:46;;;;;;;6.55;2.75;;;22.70;76.20;22.50;99312.00;;;;344300;28;95523;-91
2021/06/27 00:26:58;;;;;;;4.07;2.50;;;22.70;76.50;22.50;99310.00;;;;344373;28;90456;-89
2021/06/27 00:27:10;;;;;;;3.33;2.30;;;22.70;76.70;22.50;99308.00;;;;341525;28;94708;-89
2021/06/27 00:27:22;;;;;;;3.63;2.55;;;22.70;76.80;22.50;99313.00;;;;345022;28;91264;-88
2021/06/27 00:27:34;;;;;;;4.90;2.97;;;22.70;76.80;22.50;99304.00;;;;347518;28;92877;-88
2021/06/27 00:27:47;;;;;;;4.72;2.92;;;22.70;76.80;22.50;99307.00;;;;345888;28;91087;-93
2021/06/27 00:27:59;;;;;;;4.85;3.05;;;22.70;76.50;22.50;99311.00;;;;343794;28;95357;-88
2021/06/27 00:28:11;;;;;;;3.97;2.90;;;22.70;76.70;22.40;99309.00;;;;347161;28;91272;-92
2021/06/27 00:28:23;;;;;;;3.95;3.03;;;22.70;76.80;22.30;99309.00;;;;343216;28;95610;-95
2021/06/27 00:28:35;;;;;;;3.60;2.75;;;22.70;76.70;22.30;99309.00;;;;345912;28;90988;-91
2021/06/27 00:28:47;;;;;;;5.38;2.85;;;22.70;76.70;22.20;99306.00;;;;347139;28;95541;-92
2021/06/27 00:28:58;;;;;;;6.65;2.65;;;22.60;76.70;22.40;99304.00;;;;345388;28;90547;-92
2021/06/27 00:29:10;;;;;;;6.88;2.80;;;22.70;76.60;22.50;99307.00;;;;343660;28;93993;-90
2021/06/27 00:29:22;;;;;;;3.80;2.80;;;22.70;76.70;22.60;99314.00;;;;345665;28;91383;-92
2021/06/27 00:29:34;;;;;;;4.53;3.20;;;22.60;76.60;22.60;99309.00;;;;344606;28;92682;-94
2021/06/27 00:29:46;;;;;;;4.60;3.13;;;22.70;76.60;22.50;99300.00;;;;344910;28;92893;-93
2021/06/27 00:29:58;;;;;;;4.28;2.75;;;22.70;76.60;22.40;99308.00;;;;343175;28;95305;-89
2021/06/27 00:30:10;;;;;;;4.32;2.40;;;22.70;76.80;22.30;99311.00;;;;344098;28;91172;-91
2021/06/27 00:30:23;;;;;;;4.28;2.85;;;22.60;77.00;22.30;99305.00;;;;344562;28;95727;-89
2021/06/27 00:30:36;;;;;;;4.70;3.40;;;22.60;77.00;22.40;99306.00;;;;345868;28;91106;-93
2021/06/27 00:30:51;;;;;;;5.07;3.40;;;22.60;76.60;22.40;99312.00;;;;343030;28;96010;-93
2021/06/27 00:31:03;;;;;;;5.45;3.08;;;22.60;76.80;22.50;99304.00;;;;343139;28;90348;-91
2021/06/27 00:31:15;;;;;;;5.13;2.83;;;22.60;76.60;22.60;99312.00;;;;343944;28;96830;-88
2021/06/27 00:31:27;;;;;;;7.90;3.30;;;22.60;76.40;22.50;99311.00;;;;343851;28;91293;-91
2021/06/27 00:31:39;;;;;;;8.32;3.47;;;22.60;76.50;22.50;99305.00;;;;344634;28;95598;-93
2021/06/27 00:31:51;;;;;;;6.40;3.53;;;22.60;76.50;22.40;99308.00;;;;345462;28;91164;-89
2021/06/27 00:32:04;;;;;;;5.45;3.47;;;22.70;76.60;22.30;99300.00;;;;344627;28;92757;-93
2021/06/27 00:32:16;;;;;;;4.82;3.33;;;22.60;76.60;22.20;99312.00;;;;343811;28;91444;-90
2021/06/27 00:32:28;;;;;;;4.90;3.40;;;22.60;76.90;22.30;99308.00;;;;343368;28;95848;-91
2021/06/27 00:32:40;;;;;;;4.38;3.30;;;22.60;77.00;22.30;99298.00;;;;344372;28;91126;-93
2021/06/27 00:32:53;;;;;;;3.97;2.83;;;22.60;76.90;22.30;99307.00;;;;343501;28;95449;-89
2021/06/27 00:33:05;;;;;;;3.78;2.72;;;22.60;77.20;22.30;99313.00;;;;347235;28;90379;-94
2021/06/27 00:33:18;;;;;;;4.00;2.58;;;22.60;76.90;22.40;99311.00;;;;344475;28;94680;-90
2021/06/27 00:33:30;;;;;;;3.65;2.60;;;22.60;76.60;22.50;99309.00;;;;344924;28;91194;-94
2021/06/27 00:33:42;;;;;;;4.05;2.80;;;22.60;76.60;22.50;99304.00;;;;344492;28;95185;-92
2021/06/27 00:33:54;;;;;;;4.10;2.83;;;22.60;76.50;22.50;99306.00;;;;345654;28;91168;-93
2021/06/27 00:34:06;;;;;;;4.70;2.88;;;22.60;76.50;22.30;99309.00;;;;342685;28;92794;-90
2021/06/27 00:34:17;;;;;;;3.95;2.75;;;22.60;76.80;22.30;99298.00;;;;345078;28;91094;-90
2021/06/27 00:34:29;;;;;;;4.03;2.72;;;22.60;76.80;22.40;99300.00;;;;340612;28;95649;-91
2021/06/27 00:34:41;;;;;;;4.60;2.95;;;22.60;76.70;22.50;99299.00;;;;343202;28;91105;-90
2021/06/27 00:34:53;;;;;;;5.07;3.33;;;22.60;76.50;22.50;99311.00;;;;342499;28;95954;-89
2021/06/27 00:35:06;;;;;;;4.93;3.25;;;22.60;76.50;22.50;99306.00;;;;344015;28;90253;-89
2021/06/27 00:35:19;;;;;;;4.82;2.85;;;22.60;76.70;22.50;99304.00;;;;346528;28;94852;-95
2021/06/27 00:35:31;;;;;;;5.38;2.90;;;22.60;76.70;22.50;99314.00;;;;343279;28;91178;-96
2021/06/27 00:35:43;;;;;;;4.35;2.80;;;22.60;76.60;22.40;99309.00;;;;343149;28;95629;-94
2021/06/27 00:35:55;;;;;;;4.13;3.00;;;22.60;77.50;22.30;99307.00;;;;344079;28;91185;-95
2021/06/27 00:36:07;;;;;;;3.88;2.90;;;22.60;77.10;22.30;99299.00;;;;343592;28;93247;-94
2021/06/27 00:36:19;;;;;;;4.03;2.92;;;22.60;77.20;22.30;99299.00;;;;341939;28;91615;-93
2021/06/27 00:36:31;;;;;;;4.07;2.83;;;22.60;77.10;22.30;99308.00;;;;340692;28;92920;-96
2021/06/27 00:36:43;;;;;;;3.92;2.80;;;22.50;77.10;22.30;99310.00;;;;341155;28;91512;-95
2021/06/27 00:36:55;;;;;;;4.03;2.95;;;22.50;77.10;22.50;99309.00;;;;343035;28;95547;-95
2021/06/27 00:37:08;;;;;;;4.63;2.90;;;22.60;77.20;22.50;99306.00;;;;344249;28;90508;-95
2021/06/27 00:37:20;;;;;;;4.78;2.80;;;22.60;76.70;22.50;99308.00;;;;342741;28;94643;-95
2021/06/27 00:37:32;;;;;;;4.55;2.85;;;22.60;77.00;22.40;99308.00;;;;342773;28;91151;-92
2021/06/27 00:37:45;;;;;;;3.90;2.65;;;22.60;77.00;22.40;99306.00;;;;345806;28;93377;-94
2021/06/27 00:37:57;;;;;;;3.78;2.90;;;22.60;76.90;22.40;99310.00;;;;345341;28;91252;-96
2021/06/27 00:38:09;;;;;;;4.10;3.22;;;22.60;77.00;22.30;99307.00;;;;343930;28;95615;-95
2021/06/27 00:38:21;;;;;;;4.30;3.35;;;22.60;77.90;22.40;99309.00;;;;342809;28;91130;-95
2021/06/27 00:38:36;;;;;;;4.30;3.20;;;22.60;76.90;22.30;99309.00;;;;345434;28;95456;-95
2021/06/27 00:38:48;;;;;;;3.92;3.03;;;22.60;77.10;22.20;99297.00;;;;344033;28;91187;-94
2021/06/27 00:39:00;;;;;;;4.13;3.05;;;22.50;77.20;22.30;99311.00;;;;344281;28;93005;-96
2021/06/27 00:39:11;;;;;;;6.05;3.20;;;22.50;77.10;22.40;99306.00;;;;344450;28;90356;-95
2021/06/27 00:39:23;;;;;;;6.32;3.40;;;22.50;76.80;22.40;99297.00;;;;343994;28;94792;-95
2021/06/27 00:39:36;;;;;;;5.20;3.53;;;22.50;76.80;22.30;99295.00;;;;342165;28;91240;-92
2021/06/27 00:39:48;;;;;;;5.28;3.58;;;22.50;77.10;22.40;99295.00;;;;343700;28;95486;-95
2021/06/27 00:40:00;;;;;;;5.22;3.28;;;22.50;76.90;22.40;99295.00;;;;342085;28;91425;-92
2021/06/27 00:40:15;;;;;;;5.90;3.53;;;22.50;76.80;22.30;99288.00;;;;345340;28;94480;-95
2021/06/27 00:40:30;;;;;;;5.93;3.50;;;22.50;77.00;22.30;99291.00;;;;342682;28;91203;-96
2021/06/27 00:40:43;;;;;;;5.35;3.40;;;22.50;77.20;22.30;99294.00;;;;341785;28;95761;-95
2021/06/27 00:40:55;;;;;;;4.65;3.25;;;22.50;77.20;22.20;99300.00;;;;341563;28;91366;-93
2021/06/27 00:41:08;;;;;;;6.07;3.33;;;22.50;77.40;22.20;99305.00;;;;340529;28;93026;-95
2021/06/27 00:41:20;;;;;;;6.18;3.20;;;22.50;77.50;22.20;99291.00;;;;342477;28;90431;-95
2021/06/27 00:41:31;;;;;;;5.93;3.40;;;22.50;77.40;22.10;99295.00;;;;342755;28;96149;-92
2021/06/27 00:41:43;;;;;;;5.85;3.33;;;22.50;77.20;22.20;99289.00;;;;342577;28;91197;-94
2021/06/27 00:41:55;;;;;;;5.35;3.20;;;22.50;77.50;22.00;99289.00;;;;343110;28;92989;-96
2021/06/27 00:42:07;;;;;;;5.22;3.17;;;22.40;77.40;22.00;99289.00;;;;343785;28;91218;-93
2021/06/27 00:42:19;;;;;;;4.05;2.97;;;22.40;77.50;22.00;99289.00;;;;343390;28;95598;-96
2021/06/27 00:42:31;;;;;;;3.80;2.95;;;22.40;77.60;22.10;99290.00;;;;341374;28;91167;-96
2021/06/27 00:42:43;;;;;;;4.18;3.05;;;22.40;77.60;22.10;99294.00;;;;342792;28;96221;-94
2021/06/27 00:42:55;;;;;;;4.00;2.88;;;22.40;77.80;22.10;99289.00;;;;342190;28;91240;-95
2021/06/27 00:43:07;;;;;;;4.22;2.92;;;22.40;77.50;22.20;99289.00;;;;343971;28;93119;-95
2021/06/27 00:43:19;;;;;;;4.63;3.00;;;22.40;77.40;22.10;99297.00;;;;342055;28;90501;-95
2021/06/27 00:43:31;;;;;;;4.57;3.22;;;22.40;77.50;22.10;99295.00;;;;341489;28;94781;-95
2021/06/27 00:43:43;;;;;;;4.72;3.28;;;22.40;77.60;22.10;99292.00;;;;342678;28;91993;-96
2021/06/27 00:43:55;;;;;;;4.82;3.13;;;22.40;77.60;22.10;99289.00;;;;342786;28;94291;-95
2021/06/27 00:44:07;;;;;;;5.93;3.30;;;22.40;77.60;22.20;99291.00;;;;342281;28;91461;-92
2021/06/27 00:44:21;;;;;;;6.50;3.38;;;22.40;77.30;22.20;99290.00;;;;344326;28;92832;-96
2021/06/27 00:44:33;;;;;;;6.93;3.40;;;22.40;77.60;22.20;99291.00;;;;342890;28;91344;-95
2021/06/27 00:44:45;;;;;;;5.38;3.38;;;22.40;77.40;22.30;99292.00;;;;344327;28;93723;-95
2021/06/27 00:44:57;;;;;;;6.38;3.70;;;22.40;77.30;22.30;99294.00;;;;342769;28;91651;-96
2021/06/27 00:45:11;;;;;;;6.35;3.42;;;22.40;77.40;22.20;99291.00;;;;341773;28;95415;-95
2021/06/27 00:45:25;;;;;;;4.80;2.92;;;22.40;77.70;22.10;99295.00;;;;342605;28;90430;-96
2021/06/27 00:45:37;;;;;;;4.25;3.20;;;22.40;77.90;22.00;99290.00;;;;344491;28;94782;-96
2021/06/27 00:45:49;;;;;;;4.00;3.40;;;22.40;77.80;22.10;99290.00;;;;341198;28;92259;-95
2021/06/27 00:46:01;;;;;;;5.15;3.50;;;22.40;77.70;22.20;99295.00;;;;342788;28;96091;-95
2021/06/27 00:46:13;;;;;;;5.32;3.33;;;22.40;77.50;22.30;99290.00;;;;341304;28;91458;-95
2021/06/27 00:46:25;;;;;;;5.03;2.97;;;22.40;77.30;22.30;99284.00;;;;345662;28;96414;-95
2021/06/27 00:46:37;;;;;;;5.63;3.22;;;22.40;77.60;22.20;99289.00;;;;342276;28;91319;-89
2021/06/27 00:46:53;;;;;;;5.32;3.22;;;22.40;77.60;22.10;99289.00;;;;342299;28;96273;-96
2021/06/27 00:47:05;;;;;;;5.22;3.22;;;22.40;77.70;22.10;99289.00;;;;344088;28;91152;-95
2021/06/27 00:47:31;;;;;;;5.10;3.35;;;22.40;77.60;22.20;99289.00;;;;342739;28;97910;-96
2021/06/27 00:47:43;;;;;;;4.25;3.15;;;22.40;77.40;22.10;99294.00;;;;344034;28;90414;-94
2021/06/27 00:47:58;;;;;;;5.10;3.53;;;22.40;78.00;22.00;99283.00;;;;342865;28;95891;-95
2021/06/27 00:48:10;;;;;;;5.95;3.67;;;22.40;77.80;21.90;99285.00;;;;341548;28;91394;-96
2021/06/27 00:48:22;;;;;;;5.53;3.55;;;22.40;78.20;21.90;99289.00;;;;342101;28;95421;-96
2021/06/27 00:48:34;;;;;;;5.13;3.40;;;22.40;78.50;22.10;99285.00;;;;342657;28;91126;-96
2021/06/27 00:48:46;;;;;;;4.75;3.33;;;22.30;77.90;22.30;99278.00;;;;345403;28;93399;-93
2021/06/27 00:48:58;;;;;;;4.97;3.08;;;22.40;77.80;22.30;99278.00;;;;342289;28;91209;-95
2021/06/27 00:49:09;;;;;;;4.82;3.03;;;22.40;77.50;22.30;99284.00;;;;345743;28;93161;-96
2021/06/27 00:49:21;;;;;;;4.18;2.80;;;22.40;77.40;22.20;99281.00;;;;342614;28;91169;-96
2021/06/27 00:49:33;;;;;;;4.32;2.75;;;22.40;78.20;22.00;99291.00;;;;344901;28;92693;-96
2021/06/27 00:49:45;;;;;;;4.43;2.80;;;22.40;77.80;21.90;99281.00;;;;342876;28;90574;-93
2021/06/27 00:49:57;;;;;;;3.95;2.58;;;22.40;77.80;21.90;99281.00;;;;344061;28;95474;-95
2021/06/27 00:50:23;;;;;;;4.40;2.92;;;22.40;77.90;21.80;99288.00;;;;340980;28;91425;-95
2021/06/27 00:50:45;;;;;;;5.95;3.00;;;22.40;77.80;21.90;99286.00;;;;342952;28;95549;-96
2021/06/27 00:50:57;;;;;;;4.82;3.42;;;22.40;77.80;22.00;99281.00;;;;341186;28;91178;-93
2021/06/27 00:51:09;;;;;;;4.03;3.00;;;22.40;77.70;21.90;99282.00;;;;342536;28;96845;-96
2021/06/27 00:51:22;;;;;;;3.70;2.83;;;22.30;77.70;21.90;99287.00;;;;341438;28;91277;-96
2021/06/27 00:51:34;;;;;;;3.70;2.80;;;22.30;77.70;21.80;99281.00;;;;341620;28;95402;-95
2021/06/27 00:51:47;;;;;;;4.82;3.00;;;22.30;77.70;21.60;99282.00;;;;342498;28;91172;-96
2021/06/27 00:51:58;;;;;;;6.40;3.10;;;22.30;77.80;21.60;99284.00;;;;342284;28;96315;-92
2021/06/27 00:52:10;;;;;;;7.10;2.88;;;22.30;77.80;21.70;99279.00;;;;342871;28;90525;-96
2021/06/27 00:52:22;;;;;;;6.20;2.60;;;22.30;77.70;21.70;99281.00;;;;343173;28;94487;-95
2021/06/27 00:52:34;;;;;;;6.90;2.63;;;22.30;77.80;21.70;99275.00;;;;343634;28;91216;-94
2021/06/27 00:52:46;;;;;;;4.90;2.42;;;22.30;77.80;21.70;99281.00;;;;342863;28;95893;-96
2021/06/27 00:52:58;;;;;;;4.85;2.55;;;22.30;77.90;21.70;99282.00;;;;341454;28;91336;-96
2021/06/27 00:53:10;;;;;;;3.95;2.55;;;22.20;77.70;21.80;99277.00;;;;341288;28;95349;-95
2021/06/27 00:53:22;;;;;;;4.25;2.80;;;22.30;77.70;21.80;99275.00;;;;341703;28;92162;-95
2021/06/27 00:53:34;;;;;;;4.07;2.88;;;22.30;77.50;21.90;99278.00;;;;343235;28;96854;-96
2021/06/27 00:53:46;;;;;;;4.25;2.80;;;22.20;77.40;22.00;99269.00;;;;342944;28;91195;-95
2021/06/27 00:53:58;;;;;;;4.55;2.60;;;22.20;77.20;22.00;99287.00;;;;341809;28;93027;-96
2021/06/27 00:54:10;;;;;;;4.22;2.70;;;22.20;77.40;22.00;99279.00;;;;344842;28;90495;-95
2021/06/27 00:54:21;;;;;;;3.67;2.63;;;22.20;77.30;22.00;99284.00;;;;343022;28;95180;-96
2021/06/27 00:54:33;;;;;;;3.47;2.60;;;22.20;77.20;22.10;99281.00;;;;342738;28;91228;-96
2021/06/27 00:54:45;;;;;;;3.58;2.53;;;22.30;77.50;22.10;99283.00;;;;341530;28;95704;-96
2021/06/27 00:54:57;;;;;;;4.03;2.63;;;22.30;77.30;22.10;99284.00;;;;343876;28;91315;-96
2021/06/27 00:55:09;;;;;;;4.80;2.65;;;22.30;77.10;22.10;99285.00;;;;344619;28;93145;-96
2021/06/27 00:55:21;;;;;;;4.45;2.47;;;22.30;77.10;22.10;99281.00;;;;342518;28;91301;-95
2021/06/27 00:55:33;;;;;;;3.83;2.42;;;22.30;77.70;22.10;99284.00;;;;342726;28;96164;-96
2021/06/27 00:55:54;;;;;;;3.92;2.40;;;22.30;77.80;22.10;99285.00;;;;341490;28;91214;-96
2021/06/27 00:56:06;;;;;;;4.57;2.83;;;22.30;77.10;22.00;99282.00;;;;339846;28;95728;-88
2021/06/27 00:56:18;;;;;;;3.72;2.83;;;22.30;77.50;22.20;99275.00;;;;341948;28;90538;-96
2021/06/27 00:56:30;;;;;;;4.22;2.47;;;22.30;77.20;22.10;99277.00;;;;343428;28;94733;-96
2021/06/27 00:56:44;;;;;;;4.63;2.50;;;22.30;77.40;22.10;99282.00;;;;342400;28;91222;-96
2021/06/27 00:56:56;;;;;;;3.63;2.40;;;22.30;77.50;22.10;99284.00;;;;343061;28;95569;-96
2021/06/27 00:57:09;;;;;;;3.17;2.22;;;22.30;77.30;22.10;99284.00;;;;340774;28;91375;-96